createdAt,value
2023-04-10T00:00:33.356Z,95428.38
2023-04-10T00:03:03.431Z,95450.75
2023-04-10T00:05:31.799Z,95467.47
2023-04-10T00:07:58.584Z,95456.00
2023-04-10T00:10:26.689Z,95400.06
2023-04-10T00:12:54.118Z,95443.72
2023-04-10T00:15:21.173Z,95406.97
2023-04-10T00:17:50.590Z,95395.41
2023-04-10T00:20:18.152Z,95335.88
2023-04-10T00:22:45.025Z,95283.13
2023-04-10T00:25:11.866Z,95363.59
2023-04-10T00:27:38.622Z,95395.41
2023-04-10T00:30:06.359Z,95411.97
2023-04-10T00:32:33.300Z,95450.28
2023-04-10T00:35:00.138Z,95402.59
2023-04-10T00:37:27.534Z,95449.88
2023-04-10T00:39:54.355Z,95373.81
2023-04-10T00:42:21.233Z,95385.53
2023-04-10T00:44:48.416Z,95408.28
2023-04-10T00:47:15.692Z,95400.88
2023-04-10T00:49:43.834Z,95424.84
2023-04-10T00:52:10.957Z,95423.56
2023-04-10T00:54:38.375Z,95401.97
2023-04-10T00:57:05.303Z,95377.78
2023-04-10T00:59:32.216Z,95354.78
2023-04-10T01:01:59.380Z,95260.66
2023-04-10T01:04:28.940Z,95370.56
2023-04-10T01:07:15.526Z,95369.69
2023-04-10T01:09:50.412Z,95373.75
2023-04-10T01:12:36.654Z,95426.44
2023-04-10T01:15:11.582Z,95422.41
2023-04-10T01:18:19.660Z,95421.41
2023-04-10T01:20:46.911Z,95403.66
2023-04-10T01:23:29.467Z,95377.78
2023-04-10T01:26:03.881Z,95345.38
2023-04-10T01:28:53.457Z,95378.00
2023-04-10T01:31:29.352Z,95370.44
2023-04-10T01:34:05.062Z,95412.44
2023-04-10T01:36:40.846Z,95414.19
2023-04-10T01:39:09.895Z,95414.94
2023-04-10T01:41:38.602Z,95398.59
2023-04-10T01:44:07.513Z,95362.47
2023-04-10T01:46:38.391Z,95324.31
2023-04-10T01:49:06.160Z,95269.84
2023-04-10T01:51:35.103Z,95290.53
2023-04-10T01:54:07.108Z,95295.88
2023-04-10T01:56:35.118Z,95344.34
2023-04-10T01:59:04.156Z,95372.47
2023-04-10T02:01:31.374Z,95396.72
2023-04-10T02:03:59.872Z,95325.44
2023-04-10T02:06:50.651Z,95347.44
2023-04-10T02:09:43.773Z,95346.56
2023-04-10T02:12:16.530Z,95268.59
2023-04-10T02:14:46.719Z,95244.63
2023-04-10T02:17:19.296Z,95296.63
2023-04-10T02:19:51.256Z,95364.03
2023-04-10T02:22:19.439Z,95372.88
2023-04-10T02:24:46.674Z,95401.09
2023-04-10T02:27:13.923Z,95397.19
2023-04-10T02:29:40.776Z,95293.00
2023-04-10T02:32:07.695Z,95315.63
2023-04-10T02:34:34.572Z,95359.69
2023-04-10T02:37:01.540Z,95329.16
2023-04-10T02:39:29.584Z,95295.13
2023-04-10T02:41:57.134Z,95316.78
2023-04-10T02:44:24.104Z,95368.44
2023-04-10T02:46:51.257Z,95358.03
2023-04-10T02:49:19.837Z,95370.22
2023-04-10T02:51:46.669Z,95391.63
2023-04-10T02:54:13.544Z,95391.06
2023-04-10T02:56:41.777Z,95371.09
2023-04-10T02:59:08.740Z,95350.84
2023-04-10T03:01:36.356Z,95267.47
2023-04-10T03:04:04.454Z,95366.72
2023-04-10T03:06:36.700Z,95372.31
2023-04-10T03:09:04.390Z,95393.59
2023-04-10T03:11:33.342Z,95372.38
2023-04-10T03:14:00.660Z,95384.44
2023-04-10T03:16:27.539Z,95352.59
2023-04-10T03:18:54.373Z,95344.94
2023-04-10T03:21:22.018Z,95299.31
2023-04-10T03:23:49.941Z,95287.75
2023-04-10T03:26:16.673Z,95304.81
2023-04-10T03:28:43.485Z,95368.97
2023-04-10T03:31:12.552Z,95321.19
2023-04-10T03:33:41.573Z,95324.75
2023-04-10T03:36:09.052Z,95359.41
2023-04-10T03:38:36.198Z,95337.84
2023-04-10T03:41:04.876Z,95355.91
2023-04-10T03:43:33.597Z,95376.41
2023-04-10T03:46:02.368Z,95356.78
2023-04-10T03:48:30.704Z,95313.38
2023-04-10T03:50:58.370Z,95360.75
2023-04-10T03:53:25.553Z,95341.47
2023-04-10T03:55:54.025Z,95283.94
2023-04-10T03:58:22.656Z,95326.81
2023-04-10T04:00:51.665Z,95391.88
2023-04-10T04:03:27.857Z,95406.75
2023-04-10T04:06:01.194Z,95359.69
2023-04-10T04:08:30.851Z,95387.28
2023-04-10T04:11:08.678Z,95395.22
2023-04-10T04:13:55.991Z,95401.75
2023-04-10T04:17:01.408Z,95382.13
2023-04-10T04:19:56.028Z,95289.56
2023-04-10T04:22:41.678Z,95342.78
2023-04-10T04:25:37.857Z,95315.19
2023-04-10T04:28:23.433Z,95388.06
2023-04-10T04:31:20.642Z,95376.19
2023-04-10T04:34:05.860Z,95343.53
2023-04-10T04:37:03.353Z,95377.25
2023-04-10T04:39:51.837Z,95325.38
2023-04-10T04:42:24.889Z,95321.97
2023-04-10T04:45:24.845Z,95376.84
2023-04-10T04:48:14.706Z,95337.72
2023-04-10T04:50:54.727Z,95356.28
2023-04-10T04:53:40.313Z,95304.13
2023-04-10T04:56:14.757Z,95342.63
2023-04-10T04:59:00.047Z,95331.34
2023-04-10T05:01:41.260Z,95384.53
2023-04-10T05:04:31.419Z,95382.72
2023-04-10T05:07:24.140Z,95368.41
2023-04-10T05:10:13.960Z,95363.22
2023-04-10T05:12:49.456Z,95381.41
2023-04-10T05:15:37.637Z,95383.16
2023-04-10T05:18:24.774Z,95352.94
2023-04-10T05:21:03.450Z,95377.38
2023-04-10T05:23:47.736Z,95349.13
2023-04-10T05:26:28.416Z,95346.06
2023-04-10T05:29:15.657Z,95313.13
2023-04-10T05:32:11.525Z,95353.28
2023-04-10T05:35:04.932Z,95317.56
2023-04-10T05:37:43.602Z,95361.69
2023-04-10T05:40:37.716Z,95355.41
2023-04-10T05:43:30.948Z,95357.41
2023-04-10T05:46:21.427Z,95290.66
2023-04-10T05:49:04.989Z,95358.81
2023-04-10T05:51:42.005Z,95354.59
2023-04-10T05:54:27.359Z,95367.25
2023-04-10T05:57:26.919Z,95372.31
2023-04-10T06:00:06.959Z,95391.47
2023-04-10T06:03:03.254Z,95387.09
2023-04-10T06:05:31.861Z,95378.09
2023-04-10T06:08:03.425Z,95310.53
2023-04-10T06:10:31.121Z,95386.59
2023-04-10T06:12:58.063Z,95334.63
2023-04-10T06:15:25.999Z,95379.75
2023-04-10T06:17:54.221Z,95339.56
2023-04-10T06:20:21.885Z,95330.63
2023-04-10T06:22:51.227Z,95384.69
2023-04-10T06:25:18.908Z,95406.63
2023-04-10T06:27:46.227Z,95374.47
2023-04-10T06:30:13.621Z,95402.25
2023-04-10T06:32:41.822Z,95385.66
2023-04-10T06:35:09.310Z,95396.31
2023-04-10T06:37:36.940Z,95436.13
2023-04-10T06:40:07.836Z,95410.16
2023-04-10T06:42:35.450Z,95369.16
2023-04-10T06:45:09.359Z,95387.16
2023-04-10T06:47:36.933Z,95403.28
2023-04-10T06:50:04.033Z,95424.81
2023-04-10T06:52:30.845Z,95424.03
2023-04-10T06:54:57.704Z,95386.63
2023-04-10T06:57:24.521Z,95400.47
2023-04-10T06:59:52.176Z,95414.19
2023-04-10T07:02:19.131Z,95430.75
2023-04-10T07:04:46.688Z,95404.72
2023-04-10T07:07:14.132Z,95382.19
2023-04-10T07:09:41.335Z,95372.50
2023-04-10T07:12:08.499Z,95347.22
2023-04-10T07:14:37.012Z,95384.88
2023-04-10T07:17:04.402Z,95348.25
2023-04-10T07:19:31.586Z,95402.00
2023-04-10T07:21:58.506Z,95409.03
2023-04-10T07:24:25.339Z,95402.13
2023-04-10T07:26:52.325Z,95372.78
2023-04-10T07:29:19.283Z,95403.63
2023-04-10T07:31:46.374Z,95383.25
2023-04-10T07:34:13.199Z,95372.28
2023-04-10T07:36:39.959Z,95398.78
2023-04-10T07:39:07.520Z,95381.25
2023-04-10T07:41:35.677Z,95383.13
2023-04-10T07:44:02.703Z,95383.50
2023-04-10T07:46:29.610Z,95362.28
2023-04-10T07:48:56.685Z,95354.75
2023-04-10T07:51:24.103Z,95364.34
2023-04-10T07:53:51.097Z,95400.94
2023-04-10T07:56:19.226Z,95389.09
2023-04-10T07:58:46.654Z,95342.38
2023-04-10T08:01:14.275Z,95367.13
2023-04-10T08:03:42.857Z,95386.28
2023-04-10T08:06:10.542Z,95403.56
2023-04-10T08:08:39.208Z,95382.53
2023-04-10T08:11:33.223Z,95447.44
2023-04-10T08:14:03.131Z,95454.75
2023-04-10T08:16:32.253Z,95425.00
2023-04-10T08:19:00.184Z,95393.69
2023-04-10T08:21:28.683Z,95421.13
2023-04-10T08:23:57.469Z,95404.38
2023-04-10T08:26:26.235Z,95405.34
2023-04-10T08:28:55.668Z,95442.06
2023-04-10T08:31:24.539Z,95462.28
2023-04-10T08:33:52.595Z,95418.94
2023-04-10T08:36:20.505Z,95456.47
2023-04-10T08:38:48.694Z,95406.81
2023-04-10T08:41:18.320Z,95440.31
2023-04-10T08:43:46.423Z,95446.63
2023-04-10T08:46:14.857Z,95432.94
2023-04-10T08:48:53.091Z,95401.00
2023-04-10T08:51:26.329Z,95415.34
2023-04-10T08:54:02.672Z,95447.53
2023-04-10T08:56:31.792Z,95460.22
2023-04-10T08:58:59.048Z,95425.91
2023-04-10T09:01:26.038Z,95429.97
2023-04-10T09:03:53.359Z,95428.88
2023-04-10T09:06:20.455Z,95438.81
2023-04-10T09:08:47.423Z,95438.19
2023-04-10T09:11:14.711Z,95441.06
2023-04-10T09:13:44.095Z,95451.47
2023-04-10T09:16:12.055Z,95429.75
2023-04-10T09:18:48.766Z,95453.25
2023-04-10T09:21:18.764Z,95414.16
2023-04-10T09:23:46.880Z,95429.19
2023-04-10T09:26:28.247Z,95430.22
2023-04-10T09:29:10.979Z,95410.19
2023-04-10T09:31:40.326Z,95442.31
2023-04-10T09:34:22.117Z,95432.25
2023-04-10T09:36:56.088Z,95410.53
2023-04-10T09:39:35.859Z,95431.34
2023-04-10T09:42:02.980Z,95401.03
2023-04-10T09:44:40.610Z,95424.91
2023-04-10T09:47:22.480Z,95389.19
2023-04-10T09:49:56.939Z,95402.75
2023-04-10T09:52:27.244Z,95412.19
2023-04-10T09:54:55.878Z,95406.94
2023-04-10T09:57:25.435Z,95405.69
2023-04-10T09:59:55.450Z,95417.72
2023-04-10T10:02:25.761Z,95440.94
2023-04-10T10:04:54.178Z,95440.63
2023-04-10T10:07:24.108Z,95462.56
2023-04-10T10:09:54.281Z,95431.91
2023-04-10T10:12:34.445Z,95477.22
2023-04-10T10:15:03.776Z,95468.53
2023-04-10T10:17:39.260Z,95480.28
2023-04-10T10:20:11.364Z,95474.59
2023-04-10T10:22:40.758Z,95445.50
2023-04-10T10:25:09.383Z,95437.63
2023-04-10T10:27:39.294Z,95429.53
2023-04-10T10:30:20.122Z,95435.75
2023-04-10T10:32:55.813Z,95442.44
2023-04-10T10:35:25.980Z,95434.41
2023-04-10T10:37:56.300Z,95424.47
2023-04-10T10:40:40.994Z,95428.28
2023-04-10T10:43:23.043Z,95430.00
2023-04-10T10:46:04.106Z,95437.84
2023-04-10T10:48:31.056Z,95433.88
2023-04-10T10:51:00.446Z,95424.72
2023-04-10T10:53:45.750Z,95441.13
2023-04-10T10:56:18.432Z,95477.63
2023-04-10T10:58:54.583Z,95454.88
2023-04-10T11:01:22.768Z,95452.22
2023-04-10T11:03:51.182Z,95438.47
2023-04-10T11:06:20.376Z,95439.22
2023-04-10T11:08:49.471Z,95424.75
2023-04-10T11:11:23.492Z,95446.19
2023-04-10T11:13:51.784Z,95439.88
2023-04-10T11:16:21.315Z,95433.00
2023-04-10T11:19:02.791Z,95460.00
2023-04-10T11:21:57.204Z,95424.94
2023-04-10T11:24:24.785Z,95416.72
2023-04-10T11:26:51.842Z,95445.44
2023-04-10T11:29:28.047Z,95405.75
2023-04-10T11:32:00.695Z,95431.41
2023-04-10T11:34:27.849Z,95401.13
2023-04-10T11:36:55.934Z,95394.47
2023-04-10T11:39:23.869Z,95388.34
2023-04-10T11:41:52.420Z,95397.47
2023-04-10T11:44:40.979Z,95412.25
2023-04-10T11:47:12.806Z,95402.81
2023-04-10T11:49:40.113Z,95412.28
2023-04-10T11:52:07.164Z,95405.56
2023-04-10T11:54:34.185Z,95398.72
2023-04-10T11:57:07.149Z,95428.78
2023-04-10T11:59:34.629Z,95406.03
2023-04-10T12:02:09.912Z,95422.81
2023-04-10T12:04:37.504Z,95384.41
2023-04-10T12:07:05.593Z,95368.63
2023-04-10T12:09:32.398Z,95351.06
2023-04-10T12:12:07.362Z,95379.47
2023-04-10T12:14:39.940Z,95373.22
2023-04-10T12:17:09.809Z,95372.78
2023-04-10T12:19:38.975Z,95394.31
2023-04-10T12:22:07.041Z,95374.22
2023-04-10T12:24:51.317Z,95387.59
2023-04-10T12:27:23.190Z,95379.59
2023-04-10T12:29:52.389Z,95369.00
2023-04-10T12:32:19.912Z,95354.66
2023-04-10T12:34:57.391Z,95365.03
2023-04-10T12:37:26.777Z,95368.47
2023-04-10T12:39:54.283Z,95379.22
2023-04-10T12:42:24.010Z,95357.56
2023-04-10T12:44:56.191Z,95338.13
2023-04-10T12:47:24.486Z,95359.63
2023-04-10T12:50:11.866Z,95369.16
2023-04-10T12:52:41.940Z,95334.31
2023-04-10T12:55:21.479Z,95314.72
2023-04-10T12:57:49.252Z,95333.63
2023-04-10T13:00:19.219Z,95320.16
2023-04-10T13:02:47.825Z,95306.66
2023-04-10T13:05:15.828Z,95306.03
2023-04-10T13:07:42.978Z,95301.94
2023-04-10T13:10:11.061Z,95303.50
2023-04-10T13:12:40.206Z,95292.75
2023-04-10T13:15:07.978Z,95294.78
2023-04-10T13:17:35.433Z,95286.06
2023-04-10T13:20:02.432Z,95273.16
2023-04-10T13:22:29.322Z,95262.19
2023-04-10T13:24:56.248Z,95255.22
2023-04-10T13:27:23.071Z,95261.59
2023-04-10T13:29:49.856Z,95233.75
2023-04-10T13:32:17.001Z,95231.38
2023-04-10T13:34:43.851Z,95238.69
2023-04-10T13:37:13.806Z,95230.41
2023-04-10T13:39:41.736Z,95209.91
2023-04-10T13:42:08.552Z,95201.69
2023-04-10T13:44:36.719Z,95192.47
2023-04-10T13:47:03.507Z,95202.50
2023-04-10T13:49:33.105Z,95200.69
2023-04-10T13:51:59.902Z,95186.97
2023-04-10T13:54:26.785Z,95205.91
2023-04-10T13:56:54.953Z,95189.66
2023-04-10T13:59:22.201Z,95193.00
2023-04-10T14:01:52.076Z,95172.56
2023-04-10T14:04:19.348Z,95183.50
2023-04-10T14:06:46.156Z,95174.22
2023-04-10T14:09:13.201Z,95158.53
2023-04-10T14:11:41.344Z,95158.66
2023-04-10T14:14:08.565Z,95159.22
2023-04-10T14:16:35.400Z,95164.09
2023-04-10T14:19:02.165Z,95147.66
2023-04-10T14:21:28.961Z,95148.91
2023-04-10T14:23:56.786Z,95147.94
2023-04-10T14:26:23.807Z,95158.97
2023-04-10T14:28:50.585Z,95141.19
2023-04-10T14:31:17.834Z,95156.22
2023-04-10T14:33:44.757Z,95155.13
2023-04-10T14:36:12.017Z,95138.25
2023-04-10T14:38:40.340Z,95146.22
2023-04-10T14:41:07.562Z,95150.91
2023-04-10T14:43:34.562Z,95141.78
2023-04-10T14:46:01.457Z,95132.03
2023-04-10T14:48:28.670Z,95118.31
2023-04-10T14:50:59.169Z,95120.19
2023-04-10T14:53:26.877Z,95115.13
2023-04-10T14:55:53.888Z,95094.63
2023-04-10T14:58:20.687Z,95108.53
2023-04-10T15:00:47.482Z,95113.47
2023-04-10T15:03:14.375Z,95108.31
2023-04-10T15:05:42.418Z,95115.09
2023-04-10T15:08:09.217Z,95109.66
2023-04-10T15:10:36.022Z,95095.72
2023-04-10T15:13:02.809Z,95109.53
2023-04-10T15:15:30.763Z,95092.66
2023-04-10T15:17:57.656Z,95091.75
2023-04-10T15:20:24.465Z,95086.22
2023-04-10T15:22:51.399Z,95070.88
2023-04-10T15:25:18.183Z,95079.16
2023-04-10T15:27:45.162Z,95087.69
2023-04-10T15:30:12.600Z,95111.72
2023-04-10T15:32:39.559Z,95117.41
2023-04-10T15:35:06.909Z,95088.59
2023-04-10T15:37:36.661Z,95067.09
2023-04-10T15:40:04.731Z,95050.91
2023-04-10T15:42:31.927Z,95051.84
2023-04-10T15:44:58.972Z,95056.44
2023-04-10T15:47:27.138Z,95044.81
2023-04-10T15:49:57.744Z,95039.63
2023-04-10T15:52:24.584Z,95038.94
2023-04-10T15:54:51.467Z,95050.97
2023-04-10T15:57:18.491Z,95047.13
2023-04-10T15:59:45.302Z,95021.25
2023-04-10T16:02:13.028Z,95036.81
2023-04-10T16:04:41.270Z,95032.31
2023-04-10T16:07:08.303Z,95011.34
2023-04-10T16:09:35.097Z,95010.03
2023-04-10T16:12:02.139Z,94996.13
2023-04-10T16:14:29.252Z,95002.78
2023-04-10T16:16:56.843Z,95011.44
2023-04-10T16:19:24.137Z,94997.84
2023-04-10T16:21:51.238Z,95004.50
2023-04-10T16:24:18.051Z,94993.31
2023-04-10T16:26:44.915Z,94978.97
2023-04-10T16:29:12.612Z,94964.13
2023-04-10T16:31:39.812Z,94964.78
2023-04-10T16:34:06.723Z,94956.19
2023-04-10T16:36:33.533Z,94958.38
2023-04-10T16:39:00.297Z,94963.44
2023-04-10T16:41:28.426Z,94958.44
2023-04-10T16:43:55.531Z,94962.63
2023-04-10T16:46:22.499Z,94960.94
2023-04-10T16:48:49.350Z,94946.34
2023-04-10T16:51:17.610Z,94954.59
2023-04-10T16:53:45.330Z,94955.88
2023-04-10T16:56:12.918Z,94950.13
2023-04-10T16:58:42.328Z,94942.94
2023-04-10T17:01:20.909Z,94948.06
2023-04-10T17:03:48.668Z,94952.38
2023-04-10T17:06:16.334Z,94954.47
2023-04-10T17:08:44.632Z,94952.66
2023-04-10T17:11:15.061Z,94922.25
2023-04-10T17:13:42.479Z,94903.19
2023-04-10T17:16:09.724Z,94919.72
2023-04-10T17:18:36.936Z,94894.25
2023-04-10T17:21:04.177Z,94882.06
2023-04-10T17:23:31.308Z,94873.03
2023-04-10T17:25:58.932Z,94901.66
2023-04-10T17:28:26.238Z,94879.53
2023-04-10T17:30:54.344Z,94880.84
2023-04-10T17:33:23.582Z,94836.34
2023-04-10T17:35:53.541Z,94841.78
2023-04-10T17:38:20.569Z,94862.78
2023-04-10T17:40:47.430Z,94866.88
2023-04-10T17:43:14.265Z,94849.84
2023-04-10T17:45:41.408Z,94821.06
2023-04-10T17:48:09.273Z,94808.81
2023-04-10T17:50:36.151Z,94798.31
2023-04-10T17:53:02.974Z,94782.69
2023-04-10T17:55:30.310Z,94797.28
2023-04-10T17:57:59.322Z,94770.56
2023-04-10T18:00:26.297Z,94765.06
2023-04-10T18:02:59.414Z,94773.16
2023-04-10T18:05:29.427Z,94794.72
2023-04-10T18:07:57.852Z,94792.47
2023-04-10T18:10:24.729Z,94792.81
2023-04-10T18:12:51.632Z,94789.06
2023-04-10T18:15:18.793Z,94780.59
2023-04-10T18:17:46.023Z,94773.47
2023-04-10T18:20:13.473Z,94752.84
2023-04-10T18:22:41.032Z,94764.56
2023-04-10T18:25:08.296Z,94766.88
2023-04-10T18:27:36.025Z,94772.34
2023-04-10T18:30:03.065Z,94775.34
2023-04-10T18:32:30.173Z,94765.66
2023-04-10T18:34:58.358Z,94791.34
2023-04-10T18:37:26.197Z,94777.22
2023-04-10T18:39:54.280Z,94780.88
2023-04-10T18:42:25.034Z,94744.47
2023-04-10T18:44:51.964Z,94756.09
2023-04-10T18:47:18.800Z,94763.69
2023-04-10T18:49:46.330Z,94738.31
2023-04-10T18:52:14.254Z,94752.47
2023-04-10T18:54:46.052Z,94778.38
2023-04-10T18:57:15.154Z,94761.63
2023-04-10T18:59:42.096Z,94747.34
2023-04-10T19:02:10.866Z,94759.94
2023-04-10T19:04:38.007Z,94756.09
2023-04-10T19:07:04.913Z,94755.59
2023-04-10T19:09:31.796Z,94747.47
2023-04-10T19:12:00.119Z,94768.78
2023-04-10T19:14:27.008Z,94730.78
2023-04-10T19:16:53.795Z,94727.84
2023-04-10T19:19:20.754Z,94733.75
2023-04-10T19:21:47.572Z,94709.50
2023-04-10T19:24:15.264Z,94723.31
2023-04-10T19:26:42.080Z,94739.88
2023-04-10T19:29:09.088Z,94756.00
2023-04-10T19:31:35.967Z,94725.78
2023-04-10T19:34:04.640Z,94713.84
2023-04-10T19:36:31.563Z,94744.72
2023-04-10T19:38:58.861Z,94743.38
2023-04-10T19:41:26.538Z,94713.25
2023-04-10T19:43:54.184Z,94713.94
2023-04-10T19:46:22.150Z,94703.19
2023-04-10T19:48:49.132Z,94705.84
2023-04-10T19:51:16.550Z,94713.56
2023-04-10T19:53:44.791Z,94674.22
2023-04-10T19:56:11.825Z,94674.16
2023-04-10T19:58:40.559Z,94676.13
2023-04-10T20:01:08.970Z,94646.28
2023-04-10T20:03:37.098Z,94627.97
2023-04-10T20:06:07.285Z,94655.78
2023-04-10T20:08:34.878Z,94668.88
2023-04-10T20:11:05.986Z,94670.34
2023-04-10T20:13:34.461Z,94692.50
2023-04-10T20:16:02.158Z,94719.09
2023-04-10T20:18:29.769Z,94710.06
2023-04-10T20:20:56.750Z,94727.19
2023-04-10T20:23:24.418Z,94741.56
2023-04-10T20:25:51.266Z,94711.66
2023-04-10T20:28:18.172Z,94687.81
2023-04-10T20:30:46.066Z,94677.50
2023-04-10T20:33:12.980Z,94672.97
2023-04-10T20:35:39.824Z,94659.03
2023-04-10T20:38:06.733Z,94696.25
2023-04-10T20:40:33.590Z,94690.91
2023-04-10T20:43:00.909Z,94688.56
2023-04-10T20:45:27.644Z,94684.97
2023-04-10T20:47:54.576Z,94720.31
2023-04-10T20:50:21.412Z,94733.31
2023-04-10T20:52:48.211Z,94734.69
2023-04-10T20:55:15.596Z,94738.91
2023-04-10T20:57:42.680Z,94723.16
2023-04-10T21:00:10.060Z,94698.91
2023-04-10T21:02:37.014Z,94688.03
2023-04-10T21:05:04.180Z,94700.28
2023-04-10T21:07:31.315Z,94700.59
2023-04-10T21:09:58.120Z,94688.59
2023-04-10T21:12:24.941Z,94643.94
2023-04-10T21:14:51.766Z,94700.97
2023-04-10T21:17:19.282Z,94712.03
2023-04-10T21:19:46.421Z,94679.03
2023-04-10T21:22:13.559Z,94712.09
2023-04-10T21:24:40.395Z,94726.34
2023-04-10T21:27:08.136Z,94767.97
2023-04-10T21:29:34.883Z,94729.66
2023-04-10T21:32:01.719Z,94705.50
2023-04-10T21:34:28.649Z,94740.59
2023-04-10T21:36:55.458Z,94682.75
2023-04-10T21:39:22.184Z,94709.25
2023-04-10T21:41:49.000Z,94761.88
2023-04-10T21:44:16.626Z,94739.69
2023-04-10T21:46:43.455Z,94731.28
2023-04-10T21:49:10.501Z,94699.75
2023-04-10T21:51:37.424Z,94706.94
2023-04-10T21:54:04.283Z,94749.00
2023-04-10T21:56:31.816Z,94764.44
2023-04-10T21:58:58.620Z,94722.47
2023-04-10T22:01:25.453Z,94685.78
2023-04-10T22:03:54.044Z,94718.22
2023-04-10T22:06:21.100Z,94759.59
2023-04-10T22:08:48.096Z,94708.53
2023-04-10T22:11:15.365Z,94695.16
2023-04-10T22:13:42.236Z,94723.59
2023-04-10T22:16:09.203Z,94717.94
2023-04-10T22:18:36.015Z,94690.16
2023-04-10T22:21:03.085Z,94679.94
2023-04-10T22:23:30.508Z,94704.19
2023-04-10T22:26:00.986Z,94703.34
2023-04-10T22:28:29.142Z,94655.28
2023-04-10T22:30:55.957Z,94637.50
2023-04-10T22:33:22.819Z,94657.72
2023-04-10T22:35:49.582Z,94671.66
2023-04-10T22:38:17.209Z,94681.22
2023-04-10T22:40:43.975Z,94690.94
2023-04-10T22:43:11.277Z,94690.47
2023-04-10T22:45:40.344Z,94676.44
2023-04-10T22:48:07.131Z,94660.44
2023-04-10T22:50:33.954Z,94676.66
2023-04-10T22:53:00.877Z,94662.28
2023-04-10T22:55:27.713Z,94694.75
2023-04-10T22:57:54.521Z,94691.38
2023-04-10T23:00:21.375Z,94699.09
2023-04-10T23:02:48.574Z,94669.97
2023-04-10T23:05:15.917Z,94700.50
2023-04-10T23:07:42.888Z,94667.00
2023-04-10T23:10:09.903Z,94664.78
2023-04-10T23:12:37.804Z,94681.06
2023-04-10T23:15:06.090Z,94666.19
2023-04-10T23:17:32.890Z,94660.97
2023-04-10T23:19:59.866Z,94676.97
2023-04-10T23:22:29.535Z,94690.22
2023-04-10T23:24:56.567Z,94660.06
2023-04-10T23:27:23.980Z,94683.94
2023-04-10T23:29:50.727Z,94669.94
2023-04-10T23:32:17.652Z,94675.97
2023-04-10T23:34:44.402Z,94648.88
2023-04-10T23:37:11.187Z,94641.72
2023-04-10T23:39:37.966Z,94657.97
2023-04-10T23:42:04.820Z,94658.81
2023-04-10T23:44:32.696Z,94646.34
2023-04-10T23:46:59.506Z,94643.88
2023-04-10T23:49:26.349Z,94658.41
2023-04-10T23:51:53.101Z,94669.38
2023-04-10T23:54:19.889Z,94685.78
2023-04-10T23:56:47.717Z,94602.22
2023-04-10T23:59:17.291Z,94673.72
